sensor_id;sensor_type;location;lat;lon;timestamp;temperature;humidity
15906;DHT22;8051;50.820;4.884;2022-10-28T00:01:40;16.70;99.90
15906;DHT22;8051;50.820;4.884;2022-10-28T00:04:07;16.60;99.90
15906;DHT22;8051;50.820;4.884;2022-10-28T00:06:36;16.50;99.90
15906;DHT22;8051;50.820;4.884;2022-10-28T00:09:04;16.50;99.90
15906;DHT22;8051;50.820;4.884;2022-10-28T00:11:32;16.40;99.90
15906;DHT22;8051;50.820;4.884;2022-10-28T00:14:01;16.30;99.90
15906;DHT22;8051;50.820;4.884;2022-10-28T00:16:32;16.20;99.90
15906;DHT22;8051;50.820;4.884;2022-10-28T00:19:01;16.10;99.90
15906;DHT22;8051;50.820;4.884;2022-10-28T00:21:30;15.90;99.90
15906;DHT22;8051;50.820;4.884;2022-10-28T00:23:59;15.80;99.90
15906;DHT22;8051;50.820;4.884;2022-10-28T00:26:29;15.70;99.90
15906;DHT22;8051;50.820;4.884;2022-10-28T00:28:59;15.70;99.90
15906;DHT22;8051;50.820;4.884;2022-10-28T00:31:28;15.60;99.90
15906;DHT22;8051;50.820;4.884;2022-10-28T00:33:57;15.50;99.90
15906;DHT22;8051;50.820;4.884;2022-10-28T00:36:27;15.40;99.90
15906;DHT22;8051;50.820;4.884;2022-10-28T00:38:57;15.40;99.90
15906;DHT22;8051;50.820;4.884;2022-10-28T00:41:28;15.30;99.90
15906;DHT22;8051;50.820;4.884;2022-10-28T00:43:58;15.30;99.90
15906;DHT22;8051;50.820;4.884;2022-10-28T00:46:30;15.20;99.90
15906;DHT22;8051;50.820;4.884;2022-10-28T00:49:03;15.20;99.90
15906;DHT22;8051;50.820;4.884;2022-10-28T00:51:34;15.20;99.90
15906;DHT22;8051;50.820;4.884;2022-10-28T00:54:03;15.20;99.90
15906;DHT22;8051;50.820;4.884;2022-10-28T00:56:36;15.20;99.90
15906;DHT22;8051;50.820;4.884;2022-10-28T00:59:09;15.10;99.90
15906;DHT22;8051;50.820;4.884;2022-10-28T01:01:37;15.10;99.90
15906;DHT22;8051;50.820;4.884;2022-10-28T01:04:05;15.10;99.90
15906;DHT22;8051;50.820;4.884;2022-10-28T01:06:33;15.10;99.90
15906;DHT22;8051;50.820;4.884;2022-10-28T01:09:01;15.10;99.90
15906;DHT22;8051;50.820;4.884;2022-10-28T01:11:44;15.00;99.90
15906;DHT22;8051;50.820;4.884;2022-10-28T01:14:35;15.00;99.90
15906;DHT22;8051;50.820;4.884;2022-10-28T01:17:25;15.10;99.90
15906;DHT22;8051;50.820;4.884;2022-10-28T01:23:06;15.10;99.90
15906;DHT22;8051;50.820;4.884;2022-10-28T01:26:04;15.10;99.90
15906;DHT22;8051;50.820;4.884;2022-10-28T01:28:57;15.10;99.90
15906;DHT22;8051;50.820;4.884;2022-10-28T01:31:37;15.00;99.90
15906;DHT22;8051;50.820;4.884;2022-10-28T01:34:11;15.00;99.90
15906;DHT22;8051;50.820;4.884;2022-10-28T01:36:54;15.00;99.90
15906;DHT22;8051;50.820;4.884;2022-10-28T01:39:30;14.90;99.90
15906;DHT22;8051;50.820;4.884;2022-10-28T01:42:06;14.90;99.90
15906;DHT22;8051;50.820;4.884;2022-10-28T01:44:40;14.80;99.90
15906;DHT22;8051;50.820;4.884;2022-10-28T01:47:14;14.90;99.90
15906;DHT22;8051;50.820;4.884;2022-10-28T01:49:48;14.90;99.90
15906;DHT22;8051;50.820;4.884;2022-10-28T01:52:21;14.90;99.90
15906;DHT22;8051;50.820;4.884;2022-10-28T01:54:52;14.80;99.90
15906;DHT22;8051;50.820;4.884;2022-10-28T01:57:21;14.80;99.90
15906;DHT22;8051;50.820;4.884;2022-10-28T01:59:50;14.80;99.90
15906;DHT22;8051;50.820;4.884;2022-10-28T02:02:19;14.80;99.90
15906;DHT22;8051;50.820;4.884;2022-10-28T02:04:46;14.80;99.90
15906;DHT22;8051;50.820;4.884;2022-10-28T02:07:14;14.80;99.90
15906;DHT22;8051;50.820;4.884;2022-10-28T02:09:55;14.70;99.90
15906;DHT22;8051;50.820;4.884;2022-10-28T02:12:28;14.70;99.90
15906;DHT22;8051;50.820;4.884;2022-10-28T02:15:24;14.60;99.90
15906;DHT22;8051;50.820;4.884;2022-10-28T02:18:10;14.70;99.90
15906;DHT22;8051;50.820;4.884;2022-10-28T02:20:44;14.60;99.90
15906;DHT22;8051;50.820;4.884;2022-10-28T02:23:24;14.60;99.90
15906;DHT22;8051;50.820;4.884;2022-10-28T02:25:56;14.60;99.90
15906;DHT22;8051;50.820;4.884;2022-10-28T02:28:35;14.50;99.90
15906;DHT22;8051;50.820;4.884;2022-10-28T02:31:08;14.50;99.90
15906;DHT22;8051;50.820;4.884;2022-10-28T02:33:39;14.50;99.90
15906;DHT22;8051;50.820;4.884;2022-10-28T02:36:11;14.50;99.90
15906;DHT22;8051;50.820;4.884;2022-10-28T02:38:44;14.50;99.90
15906;DHT22;8051;50.820;4.884;2022-10-28T02:41:16;14.50;99.90
15906;DHT22;8051;50.820;4.884;2022-10-28T02:43:48;14.40;99.90
15906;DHT22;8051;50.820;4.884;2022-10-28T02:46:18;14.40;99.90
15906;DHT22;8051;50.820;4.884;2022-10-28T02:48:50;14.40;99.90
15906;DHT22;8051;50.820;4.884;2022-10-28T02:51:22;14.40;99.90
15906;DHT22;8051;50.820;4.884;2022-10-28T02:53:58;14.40;99.90
15906;DHT22;8051;50.820;4.884;2022-10-28T02:56:27;14.40;99.90
15906;DHT22;8051;50.820;4.884;2022-10-28T02:58:56;14.40;99.90
15906;DHT22;8051;50.820;4.884;2022-10-28T03:01:23;14.40;99.90
15906;DHT22;8051;50.820;4.884;2022-10-28T03:03:52;14.40;99.90
15906;DHT22;8051;50.820;4.884;2022-10-28T03:06:19;14.40;99.90
15906;DHT22;8051;50.820;4.884;2022-10-28T03:08:47;14.40;99.90
15906;DHT22;8051;50.820;4.884;2022-10-28T03:11:14;14.40;99.90
15906;DHT22;8051;50.820;4.884;2022-10-28T03:13:41;14.40;99.90
15906;DHT22;8051;50.820;4.884;2022-10-28T03:16:09;14.40;99.90
15906;DHT22;8051;50.820;4.884;2022-10-28T03:18:36;14.30;99.90
15906;DHT22;8051;50.820;4.884;2022-10-28T03:21:05;14.30;99.90
15906;DHT22;8051;50.820;4.884;2022-10-28T03:23:33;14.30;99.90
15906;DHT22;8051;50.820;4.884;2022-10-28T03:26:00;14.20;99.90
15906;DHT22;8051;50.820;4.884;2022-10-28T03:28:27;14.30;99.90
15906;DHT22;8051;50.820;4.884;2022-10-28T03:30:55;14.40;99.90
15906;DHT22;8051;50.820;4.884;2022-10-28T03:33:22;14.40;99.90
15906;DHT22;8051;50.820;4.884;2022-10-28T03:35:50;14.40;99.90
15906;DHT22;8051;50.820;4.884;2022-10-28T03:38:19;14.50;99.90
15906;DHT22;8051;50.820;4.884;2022-10-28T03:40:47;14.50;99.90
15906;DHT22;8051;50.820;4.884;2022-10-28T03:43:14;14.50;99.90
15906;DHT22;8051;50.820;4.884;2022-10-28T03:45:42;14.60;99.90
15906;DHT22;8051;50.820;4.884;2022-10-28T03:48:09;14.50;99.90
15906;DHT22;8051;50.820;4.884;2022-10-28T03:50:37;14.50;99.90
15906;DHT22;8051;50.820;4.884;2022-10-28T03:53:04;14.50;99.90
15906;DHT22;8051;50.820;4.884;2022-10-28T03:55:33;14.50;99.90
15906;DHT22;8051;50.820;4.884;2022-10-28T03:58:01;14.50;99.90
15906;DHT22;8051;50.820;4.884;2022-10-28T04:00:28;14.50;99.90
15906;DHT22;8051;50.820;4.884;2022-10-28T04:02:56;14.50;99.90
15906;DHT22;8051;50.820;4.884;2022-10-28T04:05:23;14.50;99.90
15906;DHT22;8051;50.820;4.884;2022-10-28T04:07:50;14.50;99.90
15906;DHT22;8051;50.820;4.884;2022-10-28T04:10:18;14.50;99.90
15906;DHT22;8051;50.820;4.884;2022-10-28T04:12:47;14.50;99.90
15906;DHT22;8051;50.820;4.884;2022-10-28T04:15:15;14.50;99.90
15906;DHT22;8051;50.820;4.884;2022-10-28T04:17:42;14.50;99.90
15906;DHT22;8051;50.820;4.884;2022-10-28T04:20:10;14.40;99.90
15906;DHT22;8051;50.820;4.884;2022-10-28T04:22:38;14.40;99.90
15906;DHT22;8051;50.820;4.884;2022-10-28T04:25:06;14.40;99.90
15906;DHT22;8051;50.820;4.884;2022-10-28T04:27:33;14.40;99.90
15906;DHT22;8051;50.820;4.884;2022-10-28T04:30:02;14.40;99.90
15906;DHT22;8051;50.820;4.884;2022-10-28T04:32:30;14.40;99.90
15906;DHT22;8051;50.820;4.884;2022-10-28T04:34:57;14.40;99.90
15906;DHT22;8051;50.820;4.884;2022-10-28T04:37:24;14.40;99.90
15906;DHT22;8051;50.820;4.884;2022-10-28T04:39:52;14.40;99.90
15906;DHT22;8051;50.820;4.884;2022-10-28T04:42:19;14.40;99.90
15906;DHT22;8051;50.820;4.884;2022-10-28T04:44:46;14.40;99.90
15906;DHT22;8051;50.820;4.884;2022-10-28T04:47:15;14.40;99.90
15906;DHT22;8051;50.820;4.884;2022-10-28T04:49:43;14.40;99.90
15906;DHT22;8051;50.820;4.884;2022-10-28T04:52:11;14.30;99.90
15906;DHT22;8051;50.820;4.884;2022-10-28T04:54:38;14.30;99.90
15906;DHT22;8051;50.820;4.884;2022-10-28T04:57:06;14.20;99.90
15906;DHT22;8051;50.820;4.884;2022-10-28T04:59:33;14.20;99.90
15906;DHT22;8051;50.820;4.884;2022-10-28T05:02:00;14.20;99.90
15906;DHT22;8051;50.820;4.884;2022-10-28T05:04:29;14.20;99.90
15906;DHT22;8051;50.820;4.884;2022-10-28T05:06:57;14.20;99.90
15906;DHT22;8051;50.820;4.884;2022-10-28T05:09:24;14.20;99.90
15906;DHT22;8051;50.820;4.884;2022-10-28T05:11:52;14.20;99.90
15906;DHT22;8051;50.820;4.884;2022-10-28T05:14:19;14.20;99.90
15906;DHT22;8051;50.820;4.884;2022-10-28T05:16:46;14.20;99.90
15906;DHT22;8051;50.820;4.884;2022-10-28T05:19:14;14.20;99.90
15906;DHT22;8051;50.820;4.884;2022-10-28T05:21:43;14.20;99.90
15906;DHT22;8051;50.820;4.884;2022-10-28T05:24:10;14.30;99.90
15906;DHT22;8051;50.820;4.884;2022-10-28T05:26:38;14.30;99.90
15906;DHT22;8051;50.820;4.884;2022-10-28T05:29:05;14.30;99.90
15906;DHT22;8051;50.820;4.884;2022-10-28T05:31:33;14.30;99.90
15906;DHT22;8051;50.820;4.884;2022-10-28T05:34:00;14.30;99.90
15906;DHT22;8051;50.820;4.884;2022-10-28T05:36:28;14.40;99.90
15906;DHT22;8051;50.820;4.884;2022-10-28T05:38:56;14.40;99.90
15906;DHT22;8051;50.820;4.884;2022-10-28T05:41:24;14.50;99.90
15906;DHT22;8051;50.820;4.884;2022-10-28T05:43:52;14.50;99.90
15906;DHT22;8051;50.820;4.884;2022-10-28T05:46:19;14.60;99.90
15906;DHT22;8051;50.820;4.884;2022-10-28T05:48:48;14.60;99.90
15906;DHT22;8051;50.820;4.884;2022-10-28T05:51:15;14.60;99.90
15906;DHT22;8051;50.820;4.884;2022-10-28T05:53:42;14.60;99.90
15906;DHT22;8051;50.820;4.884;2022-10-28T05:56:11;14.60;99.90
15906;DHT22;8051;50.820;4.884;2022-10-28T05:58:39;14.60;99.90
15906;DHT22;8051;50.820;4.884;2022-10-28T06:01:06;14.60;99.90
15906;DHT22;8051;50.820;4.884;2022-10-28T06:03:34;14.50;99.90
15906;DHT22;8051;50.820;4.884;2022-10-28T06:06:02;14.50;99.90
15906;DHT22;8051;50.820;4.884;2022-10-28T06:08:29;14.50;99.90
15906;DHT22;8051;50.820;4.884;2022-10-28T06:10:56;14.40;99.90
15906;DHT22;8051;50.820;4.884;2022-10-28T06:13:25;14.40;99.90
15906;DHT22;8051;50.820;4.884;2022-10-28T06:15:53;14.40;99.90
15906;DHT22;8051;50.820;4.884;2022-10-28T06:18:21;14.30;99.90
15906;DHT22;8051;50.820;4.884;2022-10-28T06:20:53;14.30;99.90
15906;DHT22;8051;50.820;4.884;2022-10-28T06:23:21;14.20;99.90
15906;DHT22;8051;50.820;4.884;2022-10-28T06:25:49;14.20;99.90
15906;DHT22;8051;50.820;4.884;2022-10-28T06:28:17;14.20;99.90
15906;DHT22;8051;50.820;4.884;2022-10-28T06:30:46;14.20;99.90
15906;DHT22;8051;50.820;4.884;2022-10-28T06:33:14;14.20;99.90
15906;DHT22;8051;50.820;4.884;2022-10-28T06:35:41;14.20;99.90
15906;DHT22;8051;50.820;4.884;2022-10-28T06:38:08;14.20;99.90
15906;DHT22;8051;50.820;4.884;2022-10-28T06:40:36;14.30;99.90
15906;DHT22;8051;50.820;4.884;2022-10-28T06:43:05;14.30;99.90
15906;DHT22;8051;50.820;4.884;2022-10-28T06:45:33;14.40;99.90
15906;DHT22;8051;50.820;4.884;2022-10-28T06:48:04;14.50;99.90
15906;DHT22;8051;50.820;4.884;2022-10-28T06:50:33;14.60;99.90
15906;DHT22;8051;50.820;4.884;2022-10-28T06:53:01;14.70;99.90
15906;DHT22;8051;50.820;4.884;2022-10-28T06:55:29;14.90;99.90
15906;DHT22;8051;50.820;4.884;2022-10-28T06:57:58;14.90;99.90
15906;DHT22;8051;50.820;4.884;2022-10-28T07:00:26;15.00;99.90
15906;DHT22;8051;50.820;4.884;2022-10-28T07:02:54;15.00;99.90
15906;DHT22;8051;50.820;4.884;2022-10-28T07:05:24;15.10;99.90
15906;DHT22;8051;50.820;4.884;2022-10-28T07:07:53;15.20;99.90
15906;DHT22;8051;50.820;4.884;2022-10-28T07:10:20;15.20;99.90
15906;DHT22;8051;50.820;4.884;2022-10-28T07:12:48;15.40;99.90
15906;DHT22;8051;50.820;4.884;2022-10-28T07:15:15;15.40;99.90
15906;DHT22;8051;50.820;4.884;2022-10-28T07:17:43;15.50;99.90
15906;DHT22;8051;50.820;4.884;2022-10-28T07:20:11;15.60;99.90
15906;DHT22;8051;50.820;4.884;2022-10-28T07:22:39;15.60;99.90
15906;DHT22;8051;50.820;4.884;2022-10-28T07:25:08;15.70;99.90
15906;DHT22;8051;50.820;4.884;2022-10-28T07:27:35;15.80;99.90
15906;DHT22;8051;50.820;4.884;2022-10-28T07:30:03;15.90;99.90
15906;DHT22;8051;50.820;4.884;2022-10-28T07:32:31;16.00;99.90
15906;DHT22;8051;50.820;4.884;2022-10-28T07:34:58;16.10;99.90
15906;DHT22;8051;50.820;4.884;2022-10-28T07:37:26;16.10;99.90
15906;DHT22;8051;50.820;4.884;2022-10-28T07:39:54;16.20;99.90
15906;DHT22;8051;50.820;4.884;2022-10-28T07:42:22;16.30;99.90
15906;DHT22;8051;50.820;4.884;2022-10-28T07:44:49;16.30;99.90
15906;DHT22;8051;50.820;4.884;2022-10-28T07:47:17;16.40;99.90
15906;DHT22;8051;50.820;4.884;2022-10-28T07:49:46;16.50;99.90
15906;DHT22;8051;50.820;4.884;2022-10-28T07:52:13;16.60;99.90
15906;DHT22;8051;50.820;4.884;2022-10-28T07:54:41;16.80;99.90
15906;DHT22;8051;50.820;4.884;2022-10-28T07:57:10;16.90;99.90
15906;DHT22;8051;50.820;4.884;2022-10-28T07:59:37;17.00;99.90
15906;DHT22;8051;50.820;4.884;2022-10-28T08:02:05;17.10;99.90
15906;DHT22;8051;50.820;4.884;2022-10-28T08:04:32;17.20;99.90
15906;DHT22;8051;50.820;4.884;2022-10-28T08:07:00;17.30;99.90
15906;DHT22;8051;50.820;4.884;2022-10-28T08:09:27;17.50;99.90
15906;DHT22;8051;50.820;4.884;2022-10-28T08:11:55;17.50;99.90
15906;DHT22;8051;50.820;4.884;2022-10-28T08:14:24;17.60;99.90
15906;DHT22;8051;50.820;4.884;2022-10-28T08:16:52;17.70;99.90
15906;DHT22;8051;50.820;4.884;2022-10-28T08:19:19;17.90;99.90
15906;DHT22;8051;50.820;4.884;2022-10-28T08:21:46;18.00;99.90
15906;DHT22;8051;50.820;4.884;2022-10-28T08:24:14;18.10;99.90
15906;DHT22;8051;50.820;4.884;2022-10-28T08:26:41;18.20;99.90
15906;DHT22;8051;50.820;4.884;2022-10-28T08:29:09;18.30;99.90
15906;DHT22;8051;50.820;4.884;2022-10-28T08:31:38;18.30;99.90
15906;DHT22;8051;50.820;4.884;2022-10-28T08:34:06;18.40;99.90
15906;DHT22;8051;50.820;4.884;2022-10-28T08:36:34;18.50;99.90
15906;DHT22;8051;50.820;4.884;2022-10-28T08:39:02;18.60;99.90
15906;DHT22;8051;50.820;4.884;2022-10-28T08:41:35;18.60;99.90
15906;DHT22;8051;50.820;4.884;2022-10-28T08:47:22;18.70;99.90
15906;DHT22;8051;50.820;4.884;2022-10-28T08:49:56;18.70;99.90
15906;DHT22;8051;50.820;4.884;2022-10-28T08:52:29;18.70;99.90
15906;DHT22;8051;50.820;4.884;2022-10-28T08:55:01;18.80;99.90
15906;DHT22;8051;50.820;4.884;2022-10-28T08:57:35;18.80;99.90
15906;DHT22;8051;50.820;4.884;2022-10-28T09:00:06;18.80;99.90
15906;DHT22;8051;50.820;4.884;2022-10-28T09:02:47;18.90;99.90
15906;DHT22;8051;50.820;4.884;2022-10-28T09:05:20;18.90;99.90
15906;DHT22;8051;50.820;4.884;2022-10-28T09:07:48;19.00;99.90
15906;DHT22;8051;50.820;4.884;2022-10-28T09:10:17;19.10;99.90
15906;DHT22;8051;50.820;4.884;2022-10-28T09:12:52;19.10;99.90
15906;DHT22;8051;50.820;4.884;2022-10-28T09:15:32;19.10;99.90
15906;DHT22;8051;50.820;4.884;2022-10-28T09:18:07;19.00;99.90
15906;DHT22;8051;50.820;4.884;2022-10-28T09:20:46;19.00;99.90
15906;DHT22;8051;50.820;4.884;2022-10-28T09:23:20;19.00;99.90
15906;DHT22;8051;50.820;4.884;2022-10-28T09:25:57;19.10;99.90
15906;DHT22;8051;50.820;4.884;2022-10-28T09:28:39;19.20;99.90
15906;DHT22;8051;50.820;4.884;2022-10-28T09:31:14;19.40;99.90
15906;DHT22;8051;50.820;4.884;2022-10-28T09:34:00;19.60;99.90
15906;DHT22;8051;50.820;4.884;2022-10-28T09:36:34;19.90;99.90
15906;DHT22;8051;50.820;4.884;2022-10-28T09:39:04;20.10;99.90
15906;DHT22;8051;50.820;4.884;2022-10-28T09:41:36;20.30;99.90
15906;DHT22;8051;50.820;4.884;2022-10-28T09:44:12;20.50;99.90
15906;DHT22;8051;50.820;4.884;2022-10-28T09:46:40;20.60;99.90
15906;DHT22;8051;50.820;4.884;2022-10-28T09:49:14;20.80;99.90
15906;DHT22;8051;50.820;4.884;2022-10-28T09:51:48;20.90;99.90
15906;DHT22;8051;50.820;4.884;2022-10-28T09:54:16;21.00;99.90
15906;DHT22;8051;50.820;4.884;2022-10-28T09:56:44;21.10;99.90
15906;DHT22;8051;50.820;4.884;2022-10-28T09:59:13;21.20;99.90
15906;DHT22;8051;50.820;4.884;2022-10-28T10:01:42;21.20;99.90
15906;DHT22;8051;50.820;4.884;2022-10-28T10:04:17;21.20;99.90
15906;DHT22;8051;50.820;4.884;2022-10-28T10:06:48;21.20;99.90
15906;DHT22;8051;50.820;4.884;2022-10-28T10:09:20;21.30;99.90
15906;DHT22;8051;50.820;4.884;2022-10-28T10:11:49;21.40;99.90
15906;DHT22;8051;50.820;4.884;2022-10-28T10:14:22;21.50;99.90
15906;DHT22;8051;50.820;4.884;2022-10-28T10:16:54;21.70;99.90
15906;DHT22;8051;50.820;4.884;2022-10-28T10:19:23;21.70;99.90
15906;DHT22;8051;50.820;4.884;2022-10-28T10:21:52;21.80;99.90
15906;DHT22;8051;50.820;4.884;2022-10-28T10:24:28;21.90;99.90
15906;DHT22;8051;50.820;4.884;2022-10-28T10:26:57;21.90;99.90
15906;DHT22;8051;50.820;4.884;2022-10-28T10:29:26;22.00;99.90
15906;DHT22;8051;50.820;4.884;2022-10-28T10:32:12;22.10;99.90
15906;DHT22;8051;50.820;4.884;2022-10-28T10:34:44;22.20;99.90
15906;DHT22;8051;50.820;4.884;2022-10-28T10:37:18;22.30;99.90
15906;DHT22;8051;50.820;4.884;2022-10-28T10:39:59;22.40;99.90
15906;DHT22;8051;50.820;4.884;2022-10-28T10:42:27;22.50;99.90
15906;DHT22;8051;50.820;4.884;2022-10-28T10:45:00;22.70;99.90
15906;DHT22;8051;50.820;4.884;2022-10-28T10:47:28;22.80;99.90
15906;DHT22;8051;50.820;4.884;2022-10-28T10:50:20;22.80;99.90
15906;DHT22;8051;50.820;4.884;2022-10-28T10:52:50;23.00;99.90
15906;DHT22;8051;50.820;4.884;2022-10-28T10:55:23;23.10;99.90
15906;DHT22;8051;50.820;4.884;2022-10-28T10:57:51;23.00;99.90
15906;DHT22;8051;50.820;4.884;2022-10-28T11:00:20;22.90;99.90
15906;DHT22;8051;50.820;4.884;2022-10-28T11:02:50;22.90;99.90
15906;DHT22;8051;50.820;4.884;2022-10-28T11:05:23;22.80;99.90
15906;DHT22;8051;50.820;4.884;2022-10-28T11:07:51;22.80;99.90
15906;DHT22;8051;50.820;4.884;2022-10-28T11:10:21;22.80;99.90
15906;DHT22;8051;50.820;4.884;2022-10-28T11:12:51;22.70;99.90
15906;DHT22;8051;50.820;4.884;2022-10-28T11:15:22;22.70;99.90
15906;DHT22;8051;50.820;4.884;2022-10-28T11:17:55;22.70;99.90
15906;DHT22;8051;50.820;4.884;2022-10-28T11:20:26;22.80;99.90
15906;DHT22;8051;50.820;4.884;2022-10-28T11:23:13;22.90;99.90
15906;DHT22;8051;50.820;4.884;2022-10-28T11:25:46;23.00;99.90
15906;DHT22;8051;50.820;4.884;2022-10-28T11:28:44;23.10;99.90
15906;DHT22;8051;50.820;4.884;2022-10-28T11:31:27;23.30;99.90
15906;DHT22;8051;50.820;4.884;2022-10-28T11:34:10;23.40;99.90
15906;DHT22;8051;50.820;4.884;2022-10-28T11:36:49;23.40;99.90
15906;DHT22;8051;50.820;4.884;2022-10-28T11:39:20;23.50;99.90
15906;DHT22;8051;50.820;4.884;2022-10-28T11:42:03;23.60;99.90
15906;DHT22;8051;50.820;4.884;2022-10-28T11:44:39;23.60;99.90
15906;DHT22;8051;50.820;4.884;2022-10-28T11:47:32;23.60;99.90
15906;DHT22;8051;50.820;4.884;2022-10-28T11:53:16;23.60;99.90
15906;DHT22;8051;50.820;4.884;2022-10-28T11:55:50;23.80;99.90
15906;DHT22;8051;50.820;4.884;2022-10-28T11:58:32;23.90;99.90
15906;DHT22;8051;50.820;4.884;2022-10-28T12:01:13;23.80;99.90
15906;DHT22;8051;50.820;4.884;2022-10-28T12:04:11;23.80;99.90
15906;DHT22;8051;50.820;4.884;2022-10-28T12:07:08;23.80;99.90
15906;DHT22;8051;50.820;4.884;2022-10-28T12:09:50;23.80;99.90
15906;DHT22;8051;50.820;4.884;2022-10-28T12:12:27;23.80;99.90
15906;DHT22;8051;50.820;4.884;2022-10-28T12:15:02;23.90;99.90
15906;DHT22;8051;50.820;4.884;2022-10-28T12:17:42;23.90;99.90
15906;DHT22;8051;50.820;4.884;2022-10-28T12:20:16;24.00;99.90
15906;DHT22;8051;50.820;4.884;2022-10-28T12:22:50;23.90;99.90
15906;DHT22;8051;50.820;4.884;2022-10-28T12:25:22;23.90;99.90
15906;DHT22;8051;50.820;4.884;2022-10-28T12:27:54;23.70;99.90
15906;DHT22;8051;50.820;4.884;2022-10-28T12:30:25;23.70;99.90
15906;DHT22;8051;50.820;4.884;2022-10-28T12:32:58;23.60;99.90
15906;DHT22;8051;50.820;4.884;2022-10-28T12:35:29;23.50;99.90
15906;DHT22;8051;50.820;4.884;2022-10-28T12:38:01;23.40;99.90
15906;DHT22;8051;50.820;4.884;2022-10-28T12:40:38;23.30;99.90
15906;DHT22;8051;50.820;4.884;2022-10-28T12:43:11;23.30;99.90
15906;DHT22;8051;50.820;4.884;2022-10-28T12:45:41;23.30;99.90
15906;DHT22;8051;50.820;4.884;2022-10-28T12:48:15;23.40;99.90
15906;DHT22;8051;50.820;4.884;2022-10-28T12:50:50;23.40;99.90
15906;DHT22;8051;50.820;4.884;2022-10-28T12:53:26;23.40;99.90
15906;DHT22;8051;50.820;4.884;2022-10-28T12:55:59;23.30;99.90
15906;DHT22;8051;50.820;4.884;2022-10-28T12:58:31;23.20;99.90
15906;DHT22;8051;50.820;4.884;2022-10-28T13:01:02;23.20;99.90
15906;DHT22;8051;50.820;4.884;2022-10-28T13:03:31;23.10;99.90
15906;DHT22;8051;50.820;4.884;2022-10-28T13:06:24;23.10;99.90
15906;DHT22;8051;50.820;4.884;2022-10-28T13:09:10;23.20;99.90
15906;DHT22;8051;50.820;4.884;2022-10-28T13:15:03;23.10;99.90
15906;DHT22;8051;50.820;4.884;2022-10-28T13:17:40;23.10;99.90
15906;DHT22;8051;50.820;4.884;2022-10-28T13:20:18;23.10;99.90
15906;DHT22;8051;50.820;4.884;2022-10-28T13:23:08;23.20;99.90
15906;DHT22;8051;50.820;4.884;2022-10-28T13:25:55;23.10;99.90
15906;DHT22;8051;50.820;4.884;2022-10-28T13:28:29;23.00;99.90
15906;DHT22;8051;50.820;4.884;2022-10-28T13:30:59;23.00;99.90
15906;DHT22;8051;50.820;4.884;2022-10-28T13:33:28;23.00;99.90
15906;DHT22;8051;50.820;4.884;2022-10-28T13:36:15;23.10;99.90
15906;DHT22;8051;50.820;4.884;2022-10-28T13:38:49;23.10;99.90
15906;DHT22;8051;50.820;4.884;2022-10-28T13:41:31;23.10;99.90
15906;DHT22;8051;50.820;4.884;2022-10-28T13:44:21;23.00;99.90
15906;DHT22;8051;50.820;4.884;2022-10-28T13:56:19;22.80;99.90
15906;DHT22;8051;50.820;4.884;2022-10-28T13:58:51;22.70;99.90
15906;DHT22;8051;50.820;4.884;2022-10-28T14:04:29;22.60;99.90
15906;DHT22;8051;50.820;4.884;2022-10-28T14:07:05;22.70;99.90
15906;DHT22;8051;50.820;4.884;2022-10-28T14:09:42;22.80;99.90
15906;DHT22;8051;50.820;4.884;2022-10-28T14:12:16;22.80;99.90
15906;DHT22;8051;50.820;4.884;2022-10-28T14:15:02;22.80;99.90
15906;DHT22;8051;50.820;4.884;2022-10-28T14:17:36;23.00;99.90
15906;DHT22;8051;50.820;4.884;2022-10-28T14:20:19;23.00;99.90
15906;DHT22;8051;50.820;4.884;2022-10-28T14:22:48;23.10;99.90
15906;DHT22;8051;50.820;4.884;2022-10-28T14:28:52;23.10;99.90
15906;DHT22;8051;50.820;4.884;2022-10-28T14:31:41;23.00;99.90
15906;DHT22;8051;50.820;4.884;2022-10-28T14:34:38;22.80;99.90
15906;DHT22;8051;50.820;4.884;2022-10-28T14:40:29;22.70;99.90
15906;DHT22;8051;50.820;4.884;2022-10-28T14:43:11;22.50;99.90
15906;DHT22;8051;50.820;4.884;2022-10-28T14:45:58;22.40;99.90
15906;DHT22;8051;50.820;4.884;2022-10-28T14:48:45;22.30;99.90
15906;DHT22;8051;50.820;4.884;2022-10-28T14:51:14;22.30;99.90
15906;DHT22;8051;50.820;4.884;2022-10-28T14:53:44;22.30;99.90
15906;DHT22;8051;50.820;4.884;2022-10-28T14:56:20;22.30;99.90
15906;DHT22;8051;50.820;4.884;2022-10-28T14:58:49;22.20;99.90
15906;DHT22;8051;50.820;4.884;2022-10-28T15:01:23;22.20;99.90
15906;DHT22;8051;50.820;4.884;2022-10-28T15:03:53;22.20;99.90
15906;DHT22;8051;50.820;4.884;2022-10-28T15:06:26;22.10;99.90
15906;DHT22;8051;50.820;4.884;2022-10-28T15:08:54;22.10;99.90
15906;DHT22;8051;50.820;4.884;2022-10-28T15:11:24;22.00;99.90
15906;DHT22;8051;50.820;4.884;2022-10-28T15:13:52;21.90;99.90
15906;DHT22;8051;50.820;4.884;2022-10-28T15:16:22;21.90;99.90
15906;DHT22;8051;50.820;4.884;2022-10-28T15:18:51;21.90;99.90
15906;DHT22;8051;50.820;4.884;2022-10-28T15:21:20;21.80;99.90
15906;DHT22;8051;50.820;4.884;2022-10-28T15:23:58;21.80;99.90
15906;DHT22;8051;50.820;4.884;2022-10-28T15:26:27;21.70;99.90
15906;DHT22;8051;50.820;4.884;2022-10-28T15:28:55;21.60;99.90
15906;DHT22;8051;50.820;4.884;2022-10-28T15:31:22;21.50;99.90
15906;DHT22;8051;50.820;4.884;2022-10-28T15:33:50;21.40;99.90
15906;DHT22;8051;50.820;4.884;2022-10-28T15:36:20;21.30;99.90
15906;DHT22;8051;50.820;4.884;2022-10-28T15:38:49;21.20;99.90
15906;DHT22;8051;50.820;4.884;2022-10-28T15:41:45;21.20;99.90
15906;DHT22;8051;50.820;4.884;2022-10-28T15:44:25;21.00;99.90
15906;DHT22;8051;50.820;4.884;2022-10-28T15:46:54;20.90;99.90
15906;DHT22;8051;50.820;4.884;2022-10-28T15:49:37;20.80;99.90
15906;DHT22;8051;50.820;4.884;2022-10-28T15:52:35;20.70;99.90
15906;DHT22;8051;50.820;4.884;2022-10-28T15:55:28;20.50;99.90
15906;DHT22;8051;50.820;4.884;2022-10-28T15:57:59;20.40;99.90
15906;DHT22;8051;50.820;4.884;2022-10-28T16:00:28;20.30;99.90
15906;DHT22;8051;50.820;4.884;2022-10-28T16:02:58;20.30;99.90
15906;DHT22;8051;50.820;4.884;2022-10-28T16:05:53;20.30;99.90
15906;DHT22;8051;50.820;4.884;2022-10-28T16:08:26;20.20;99.90
15906;DHT22;8051;50.820;4.884;2022-10-28T16:10:57;20.10;99.90
15906;DHT22;8051;50.820;4.884;2022-10-28T16:13:29;20.00;99.90
15906;DHT22;8051;50.820;4.884;2022-10-28T16:16:00;20.00;99.90
15906;DHT22;8051;50.820;4.884;2022-10-28T16:18:31;19.90;99.90
15906;DHT22;8051;50.820;4.884;2022-10-28T16:21:00;19.80;99.90
15906;DHT22;8051;50.820;4.884;2022-10-28T16:23:34;19.80;99.90
15906;DHT22;8051;50.820;4.884;2022-10-28T16:26:02;19.80;99.90
15906;DHT22;8051;50.820;4.884;2022-10-28T16:28:31;19.70;99.90
15906;DHT22;8051;50.820;4.884;2022-10-28T16:31:00;19.70;99.90
15906;DHT22;8051;50.820;4.884;2022-10-28T16:33:30;19.60;99.90
15906;DHT22;8051;50.820;4.884;2022-10-28T16:35:58;19.50;99.90
15906;DHT22;8051;50.820;4.884;2022-10-28T16:38:26;19.40;99.90
15906;DHT22;8051;50.820;4.884;2022-10-28T16:40:53;19.40;99.90
15906;DHT22;8051;50.820;4.884;2022-10-28T16:43:22;19.30;99.90
15906;DHT22;8051;50.820;4.884;2022-10-28T16:45:53;19.20;99.90
15906;DHT22;8051;50.820;4.884;2022-10-28T16:48:23;19.10;99.90